SKBO/BOG METAR and TAF weather

Enter ICAO airport designator
Station Type Date Time Source
SKBO METAR 2020/10/29 17:00 UTC NOAA

SKBO 291700Z 23004KT 9999 SCT018 21/08 A3027 NOSIG


Station Type Date Time Source
SKBO Decoded METAR 2020/10/29 17:00 UTC NOAA

Bogota / Eldorado, Colombia (SKBO) 04-43N 074-09W 2548M
Oct 29, 2020 - 01:00 PM EDT / 2020.10.29 1700 UTC
Wind: from the SW (230 degrees) at 5 MPH (4 KT):0
Visibility: greater than 7 mile(s):0
Sky conditions: partly cloudy
Temperature: 69 F (21 C)
Dew Point: 46 F (8 C)
Relative Humidity: 43%
Pressure (altimeter): 30.27 in. Hg (1025 hPa)
ob: SKBO 291700Z 23004KT 9999 SCT018 21/08 A3027 NOSIG
cycle: 17

Station Type Date Time Source
SKBO TAF 2020/10/29 18:42 UTC NOAA

TAF TAF SKBO 291630Z 2918/3018 27010KT 9999 BKN020
TEMPO 2919/2922 RADZ FEW017CB BKN020
BECMG 3000/3002 VRB02KT FEW017 SCT070 PROB40
TEMPO 3010/3013 3000 BCFG SCT010 TX21/2918Z TN09/3011Z

Example: see airport list